sensor_id;sensor_type;location;lat;lon;timestamp;pressure;altitude;pressure_sealevel;temperature;humidity
57048;BME280;42934;54.294;18.598;2023-03-12T00:01:17;99357.81;;;-0.98;87.83
57048;BME280;42934;54.294;18.598;2023-03-12T00:03:46;99351.72;;;-0.87;87.57
57048;BME280;42934;54.294;18.598;2023-03-12T00:06:15;99350.84;;;-0.86;87.12
57048;BME280;42934;54.294;18.598;2023-03-12T00:08:45;99341.38;;;-0.83;86.27
57048;BME280;42934;54.294;18.598;2023-03-12T00:11:15;99353.44;;;-0.85;86.19
57048;BME280;42934;54.294;18.598;2023-03-12T00:13:47;99341.34;;;-0.78;86.08
57048;BME280;42934;54.294;18.598;2023-03-12T00:16:17;99344.78;;;-0.78;86.37
57048;BME280;42934;54.294;18.598;2023-03-12T00:18:47;99349.91;;;-0.73;85.99
57048;BME280;42934;54.294;18.598;2023-03-12T00:21:16;99349.84;;;-0.64;85.44
57048;BME280;42934;54.294;18.598;2023-03-12T00:23:47;99343.84;;;-0.64;85.45
57048;BME280;42934;54.294;18.598;2023-03-12T00:26:16;99348.06;;;-0.62;85.17
57048;BME280;42934;54.294;18.598;2023-03-12T00:28:46;99343.84;;;-0.69;85.38
57048;BME280;42934;54.294;18.598;2023-03-12T00:31:16;99350.69;;;-0.65;85.39
57048;BME280;42934;54.294;18.598;2023-03-12T00:33:47;99352.41;;;-0.64;85.72
57048;BME280;42934;54.294;18.598;2023-03-12T00:36:17;99346.34;;;-0.60;85.38
57048;BME280;42934;54.294;18.598;2023-03-12T00:38:46;99342.00;;;-0.55;84.92
57048;BME280;42934;54.294;18.598;2023-03-12T00:41:15;99342.00;;;-0.53;85.06
57048;BME280;42934;54.294;18.598;2023-03-12T00:43:46;99348.84;;;-0.51;84.85
57048;BME280;42934;54.294;18.598;2023-03-12T00:46:15;99351.34;;;-0.41;84.28
57048;BME280;42934;54.294;18.598;2023-03-12T00:48:44;99353.03;;;-0.39;84.55
57048;BME280;42934;54.294;18.598;2023-03-12T00:51:15;99355.66;;;-0.40;85.14
57048;BME280;42934;54.294;18.598;2023-03-12T00:53:44;99350.44;;;-0.36;84.81
57048;BME280;42934;54.294;18.598;2023-03-12T00:56:13;99354.72;;;-0.36;86.11
57048;BME280;42934;54.294;18.598;2023-03-12T00:58:42;99356.38;;;-0.28;85.85
57048;BME280;42934;54.294;18.598;2023-03-12T01:01:12;99368.38;;;-0.22;85.55
57048;BME280;42934;54.294;18.598;2023-03-12T01:03:41;99385.50;;;-0.18;85.14
57048;BME280;42934;54.294;18.598;2023-03-12T01:06:10;99363.22;;;-0.25;87.08
57048;BME280;42934;54.294;18.598;2023-03-12T01:08:40;99376.13;;;-0.27;88.33
57048;BME280;42934;54.294;18.598;2023-03-12T01:11:11;99381.28;;;-0.25;88.03
57048;BME280;42934;54.294;18.598;2023-03-12T01:13:40;99369.22;;;-0.20;87.16
57048;BME280;42934;54.294;18.598;2023-03-12T01:16:09;99372.56;;;-0.12;86.53
57048;BME280;42934;54.294;18.598;2023-03-12T01:18:38;99370.00;;;-0.13;86.65
57048;BME280;42934;54.294;18.598;2023-03-12T01:21:07;99367.47;;;-0.21;88.44
57048;BME280;42934;54.294;18.598;2023-03-12T01:23:37;99357.09;;;-0.12;87.29
57048;BME280;42934;54.294;18.598;2023-03-12T01:26:07;99370.06;;;-0.19;88.56
57048;BME280;42934;54.294;18.598;2023-03-12T01:28:36;99366.56;;;-0.14;87.74
57048;BME280;42934;54.294;18.598;2023-03-12T01:31:05;99359.69;;;-0.15;88.29
57048;BME280;42934;54.294;18.598;2023-03-12T01:33:35;99369.13;;;-0.12;88.30
57048;BME280;42934;54.294;18.598;2023-03-12T01:36:04;99369.16;;;-0.14;87.92
57048;BME280;42934;54.294;18.598;2023-03-12T01:38:34;99363.88;;;-0.06;87.39
57048;BME280;42934;54.294;18.598;2023-03-12T01:41:03;99357.00;;;-0.04;87.61
57048;BME280;42934;54.294;18.598;2023-03-12T01:43:35;99344.94;;;-0.04;87.60
57048;BME280;42934;54.294;18.598;2023-03-12T01:46:06;99345.75;;;0.03;87.53
57048;BME280;42934;54.294;18.598;2023-03-12T01:48:41;99351.72;;;0.05;87.32
57048;BME280;42934;54.294;18.598;2023-03-12T01:51:13;99352.50;;;0.13;86.64
57048;BME280;42934;54.294;18.598;2023-03-12T01:53:44;99349.94;;;0.12;86.13
57048;BME280;42934;54.294;18.598;2023-03-12T01:56:14;99347.41;;;0.07;86.53
57048;BME280;42934;54.294;18.598;2023-03-12T01:58:47;99368.03;;;0.10;85.60
57048;BME280;42934;54.294;18.598;2023-03-12T02:01:18;99361.13;;;0.12;85.54
57048;BME280;42934;54.294;18.598;2023-03-12T02:03:48;99369.69;;;0.16;85.89
57048;BME280;42934;54.294;18.598;2023-03-12T02:06:22;99373.19;;;0.10;85.87
57048;BME280;42934;54.294;18.598;2023-03-12T02:08:53;99394.63;;;0.18;85.66
57048;BME280;42934;54.294;18.598;2023-03-12T02:11:23;99381.69;;;0.20;85.75
57048;BME280;42934;54.294;18.598;2023-03-12T02:13:53;99390.34;;;0.16;85.68
57048;BME280;42934;54.294;18.598;2023-03-12T02:16:23;99388.66;;;0.15;85.60
57048;BME280;42934;54.294;18.598;2023-03-12T02:18:52;99398.13;;;0.11;85.95
57048;BME280;42934;54.294;18.598;2023-03-12T02:21:23;99381.75;;;0.14;86.12
57048;BME280;42934;54.294;18.598;2023-03-12T02:23:58;99388.78;;;0.01;85.89
57048;BME280;42934;54.294;18.598;2023-03-12T02:26:32;99392.25;;;-0.02;85.77
57048;BME280;42934;54.294;18.598;2023-03-12T02:29:03;99379.44;;;-0.11;85.85
57048;BME280;42934;54.294;18.598;2023-03-12T02:31:34;99382.78;;;0.01;86.27
57048;BME280;42934;54.294;18.598;2023-03-12T02:34:06;99394.72;;;0.08;85.58
57048;BME280;42934;54.294;18.598;2023-03-12T02:36:36;99381.00;;;0.03;84.79
57048;BME280;42934;54.294;18.598;2023-03-12T02:39:05;99394.09;;;-0.16;84.85
57048;BME280;42934;54.294;18.598;2023-03-12T02:41:36;99388.91;;;-0.13;85.21
57048;BME280;42934;54.294;18.598;2023-03-12T02:44:07;99394.97;;;-0.18;85.22
57048;BME280;42934;54.294;18.598;2023-03-12T02:46:38;99387.28;;;-0.25;85.00
57048;BME280;42934;54.294;18.598;2023-03-12T02:49:08;99384.81;;;-0.32;83.92
57048;BME280;42934;54.294;18.598;2023-03-12T02:51:40;99391.69;;;-0.34;83.73
57048;BME280;42934;54.294;18.598;2023-03-12T02:54:10;99397.69;;;-0.29;83.70
57048;BME280;42934;54.294;18.598;2023-03-12T02:56:41;99407.19;;;-0.39;82.95
57048;BME280;42934;54.294;18.598;2023-03-12T02:59:10;99405.38;;;-0.28;82.92
57048;BME280;42934;54.294;18.598;2023-03-12T03:01:42;99397.84;;;-0.49;81.94
57048;BME280;42934;54.294;18.598;2023-03-12T03:04:11;99402.84;;;-0.34;81.93
57048;BME280;42934;54.294;18.598;2023-03-12T03:06:41;99407.16;;;-0.36;81.80
57048;BME280;42934;54.294;18.598;2023-03-12T03:09:11;99409.75;;;-0.36;81.73
57048;BME280;42934;54.294;18.598;2023-03-12T03:11:41;99414.88;;;-0.31;81.46
57048;BME280;42934;54.294;18.598;2023-03-12T03:14:11;99421.00;;;-0.48;80.73
57048;BME280;42934;54.294;18.598;2023-03-12T03:16:40;99427.03;;;-0.49;81.39
57048;BME280;42934;54.294;18.598;2023-03-12T03:19:09;99426.09;;;-0.35;81.03
57048;BME280;42934;54.294;18.598;2023-03-12T03:21:40;99439.03;;;-0.43;81.20
57048;BME280;42934;54.294;18.598;2023-03-12T03:24:10;99433.94;;;-0.51;80.82
57048;BME280;42934;54.294;18.598;2023-03-12T03:26:39;99433.94;;;-0.54;80.87
57048;BME280;42934;54.294;18.598;2023-03-12T03:29:10;99437.44;;;-0.62;81.61
57048;BME280;42934;54.294;18.598;2023-03-12T03:31:39;99446.94;;;-0.66;81.54
57048;BME280;42934;54.294;18.598;2023-03-12T03:34:08;99440.13;;;-0.75;81.03
57048;BME280;42934;54.294;18.598;2023-03-12T03:36:37;99453.91;;;-0.82;80.47
57048;BME280;42934;54.294;18.598;2023-03-12T03:39:11;99459.06;;;-0.82;79.96
57048;BME280;42934;54.294;18.598;2023-03-12T03:41:40;99468.50;;;-0.76;79.13
57048;BME280;42934;54.294;18.598;2023-03-12T03:44:10;99454.72;;;-0.71;79.28
57048;BME280;42934;54.294;18.598;2023-03-12T03:46:40;99470.25;;;-0.84;78.53
57048;BME280;42934;54.294;18.598;2023-03-12T03:49:11;99465.91;;;-0.78;78.88
57048;BME280;42934;54.294;18.598;2023-03-12T03:51:41;99466.72;;;-0.71;78.46
57048;BME280;42934;54.294;18.598;2023-03-12T03:54:14;99462.47;;;-0.78;78.21
57048;BME280;42934;54.294;18.598;2023-03-12T03:56:44;99471.03;;;-0.70;78.28
57048;BME280;42934;54.294;18.598;2023-03-12T03:59:16;99473.66;;;-0.79;78.14
57048;BME280;42934;54.294;18.598;2023-03-12T04:01:48;99471.09;;;-0.85;77.96
57048;BME280;42934;54.294;18.598;2023-03-12T04:04:17;99476.25;;;-0.79;78.25
57048;BME280;42934;54.294;18.598;2023-03-12T04:06:46;99464.25;;;-0.88;77.99
57048;BME280;42934;54.294;18.598;2023-03-12T04:09:15;99478.00;;;-0.89;78.21
57048;BME280;42934;54.294;18.598;2023-03-12T04:11:44;99487.47;;;-0.96;78.09
57048;BME280;42934;54.294;18.598;2023-03-12T04:14:15;99485.78;;;-1.00;77.82
57048;BME280;42934;54.294;18.598;2023-03-12T04:16:45;99500.34;;;-0.96;77.74
57048;BME280;42934;54.294;18.598;2023-03-12T04:19:14;99500.38;;;-1.02;78.15
57048;BME280;42934;54.294;18.598;2023-03-12T04:21:43;99517.56;;;-1.04;78.26
57048;BME280;42934;54.294;18.598;2023-03-12T04:24:13;99507.25;;;-0.96;78.04
57048;BME280;42934;54.294;18.598;2023-03-12T04:26:43;99511.56;;;-1.04;78.29
57048;BME280;42934;54.294;18.598;2023-03-12T04:29:13;99514.16;;;-1.07;78.20
57048;BME280;42934;54.294;18.598;2023-03-12T04:31:44;99527.88;;;-1.07;78.14
57048;BME280;42934;54.294;18.598;2023-03-12T04:34:13;99527.94;;;-1.30;85.52
57048;BME280;42934;54.294;18.598;2023-03-12T04:36:45;99510.88;;;-1.75;93.90
57048;BME280;42934;54.294;18.598;2023-03-12T04:39:15;99516.91;;;-1.87;95.94
57048;BME280;42934;54.294;18.598;2023-03-12T04:41:45;99532.34;;;-2.02;95.24
57048;BME280;42934;54.294;18.598;2023-03-12T04:44:15;99511.75;;;-1.92;95.60
57048;BME280;42934;54.294;18.598;2023-03-12T04:46:46;99504.88;;;-1.97;95.17
57048;BME280;42934;54.294;18.598;2023-03-12T04:49:18;99498.91;;;-1.99;95.49
57048;BME280;42934;54.294;18.598;2023-03-12T04:51:47;99511.78;;;-2.09;94.93
57048;BME280;42934;54.294;18.598;2023-03-12T04:54:18;99501.50;;;-2.06;94.96
57048;BME280;42934;54.294;18.598;2023-03-12T04:56:48;99503.19;;;-2.11;94.80
57048;BME280;42934;54.294;18.598;2023-03-12T04:59:19;99508.34;;;-2.20;94.09
57048;BME280;42934;54.294;18.598;2023-03-12T05:01:50;99514.34;;;-2.16;94.02
57048;BME280;42934;54.294;18.598;2023-03-12T05:04:24;99524.63;;;-2.19;93.44
57048;BME280;42934;54.294;18.598;2023-03-12T05:06:54;99516.91;;;-2.10;93.01
57048;BME280;42934;54.294;18.598;2023-03-12T05:09:23;99510.91;;;-2.11;93.06
57048;BME280;42934;54.294;18.598;2023-03-12T05:11:52;99516.91;;;-2.19;93.24
57048;BME280;42934;54.294;18.598;2023-03-12T05:14:22;99518.59;;;-2.18;92.94
57048;BME280;42934;54.294;18.598;2023-03-12T05:16:53;99515.19;;;-2.03;92.75
57048;BME280;42934;54.294;18.598;2023-03-12T05:19:22;99527.19;;;-1.95;92.68
57048;BME280;42934;54.294;18.598;2023-03-12T05:21:51;99528.91;;;-1.95;92.51
57048;BME280;42934;54.294;18.598;2023-03-12T05:24:21;99524.63;;;-2.07;91.86
57048;BME280;42934;54.294;18.598;2023-03-12T05:26:50;99535.75;;;-2.03;91.70
57048;BME280;42934;54.294;18.598;2023-03-12T05:29:22;99544.34;;;-2.08;91.01
57048;BME280;42934;54.294;18.598;2023-03-12T05:31:54;99537.50;;;-2.06;90.78
57048;BME280;42934;54.294;18.598;2023-03-12T05:34:23;99552.91;;;-1.93;90.49
57048;BME280;42934;54.294;18.598;2023-03-12T05:36:52;99552.06;;;-2.11;89.34
57048;BME280;42934;54.294;18.598;2023-03-12T05:39:24;99558.06;;;-2.02;89.53
57048;BME280;42934;54.294;18.598;2023-03-12T05:41:56;99556.34;;;-1.99;89.30
57048;BME280;42934;54.294;18.598;2023-03-12T05:44:26;99558.91;;;-1.94;88.94
57048;BME280;42934;54.294;18.598;2023-03-12T05:46:56;99552.06;;;-1.97;89.17
57048;BME280;42934;54.294;18.598;2023-03-12T05:49:27;99564.06;;;-1.94;88.93
57048;BME280;42934;54.294;18.598;2023-03-12T05:51:56;99566.63;;;-1.96;88.92
57048;BME280;42934;54.294;18.598;2023-03-12T05:54:26;99561.50;;;-1.93;89.91
57048;BME280;42934;54.294;18.598;2023-03-12T05:56:56;99570.94;;;-1.93;89.50
57048;BME280;42934;54.294;18.598;2023-03-12T05:59:26;99570.94;;;-1.87;89.76
57048;BME280;42934;54.294;18.598;2023-03-12T06:01:57;99582.06;;;-1.94;88.66
57048;BME280;42934;54.294;18.598;2023-03-12T06:04:27;99587.19;;;-1.91;88.39
57048;BME280;42934;54.294;18.598;2023-03-12T06:06:56;99599.22;;;-1.79;88.82
57048;BME280;42934;54.294;18.598;2023-03-12T06:09:25;99615.53;;;-1.74;88.69
57048;BME280;42934;54.294;18.598;2023-03-12T06:11:55;99610.38;;;-1.59;89.43
57048;BME280;42934;54.294;18.598;2023-03-12T06:14:24;99626.69;;;-1.62;89.15
57048;BME280;42934;54.294;18.598;2023-03-12T06:16:54;99618.09;;;-1.65;89.96
57048;BME280;42934;54.294;18.598;2023-03-12T06:19:25;99633.56;;;-1.64;90.54
57048;BME280;42934;54.294;18.598;2023-03-12T06:21:53;99615.53;;;-1.68;90.81
57048;BME280;42934;54.294;18.598;2023-03-12T06:24:23;99628.41;;;-1.76;91.46
57048;BME280;42934;54.294;18.598;2023-03-12T06:27:00;99618.09;;;-1.76;91.82
57048;BME280;42934;54.294;18.598;2023-03-12T06:29:29;99618.09;;;-1.80;91.88
57048;BME280;42934;54.294;18.598;2023-03-12T06:31:58;99623.25;;;-1.79;92.09
57048;BME280;42934;54.294;18.598;2023-03-12T06:34:29;99637.81;;;-1.75;91.94
57048;BME280;42934;54.294;18.598;2023-03-12T06:36:58;99632.69;;;-1.66;91.39
57048;BME280;42934;54.294;18.598;2023-03-12T06:39:27;99640.41;;;-1.66;91.54
57048;BME280;42934;54.294;18.598;2023-03-12T06:41:57;99637.84;;;-1.55;91.22
57048;BME280;42934;54.294;18.598;2023-03-12T06:44:26;99641.25;;;-1.45;90.70
57048;BME280;42934;54.294;18.598;2023-03-12T06:46:55;99648.13;;;-1.46;90.33
57048;BME280;42934;54.294;18.598;2023-03-12T06:49:24;99645.56;;;-1.29;90.11
57048;BME280;42934;54.294;18.598;2023-03-12T06:52:00;99654.97;;;-1.35;89.42
57048;BME280;42934;54.294;18.598;2023-03-12T06:54:29;99661.00;;;-1.26;88.81
57048;BME280;42934;54.294;18.598;2023-03-12T06:56:58;99680.75;;;-1.22;88.44
57048;BME280;42934;54.294;18.598;2023-03-12T06:59:28;99681.59;;;-1.43;94.06
57048;BME280;42934;54.294;18.598;2023-03-12T07:01:57;99688.47;;;-1.26;92.03
57048;BME280;42934;54.294;18.598;2023-03-12T07:04:26;99707.38;;;-1.29;90.09
57048;BME280;42934;54.294;18.598;2023-03-12T07:06:55;99706.50;;;-1.29;89.68
57048;BME280;42934;54.294;18.598;2023-03-12T07:09:26;99673.88;;;-1.52;89.80
57048;BME280;42934;54.294;18.598;2023-03-12T07:11:55;99706.50;;;-1.31;89.25
57048;BME280;42934;54.294;18.598;2023-03-12T07:14:24;99686.75;;;-1.29;89.56
57048;BME280;42934;54.294;18.598;2023-03-12T07:16:53;99685.03;;;-1.42;89.71
57048;BME280;42934;54.294;18.598;2023-03-12T07:19:23;99681.59;;;-1.43;89.66
57048;BME280;42934;54.294;18.598;2023-03-12T07:21:52;99698.78;;;-1.43;89.65
57048;BME280;42934;54.294;18.598;2023-03-12T07:24:22;99696.19;;;-1.51;89.59
57048;BME280;42934;54.294;18.598;2023-03-12T07:26:52;99713.31;;;-1.56;89.59
57048;BME280;42934;54.294;18.598;2023-03-12T07:29:21;99715.06;;;-1.44;89.62
57048;BME280;42934;54.294;18.598;2023-03-12T07:31:50;99710.78;;;-1.39;89.38
57048;BME280;42934;54.294;18.598;2023-03-12T07:34:19;99710.78;;;-1.34;89.19
57048;BME280;42934;54.294;18.598;2023-03-12T07:36:49;99702.22;;;-1.23;89.01
57048;BME280;42934;54.294;18.598;2023-03-12T07:39:18;99697.03;;;-1.15;88.57
57048;BME280;42934;54.294;18.598;2023-03-12T07:41:47;99705.63;;;-1.04;88.10
57048;BME280;42934;54.294;18.598;2023-03-12T07:44:18;99709.06;;;-0.96;87.84
57048;BME280;42934;54.294;18.598;2023-03-12T07:46:47;99719.34;;;-0.77;88.03
57048;BME280;42934;54.294;18.598;2023-03-12T07:49:17;99720.16;;;-0.63;87.65
57048;BME280;42934;54.294;18.598;2023-03-12T07:51:46;99722.72;;;-0.49;87.41
57048;BME280;42934;54.294;18.598;2023-03-12T07:54:15;99721.84;;;-0.45;86.33
57048;BME280;42934;54.294;18.598;2023-03-12T07:56:44;99718.38;;;-0.39;85.96
57048;BME280;42934;54.294;18.598;2023-03-12T07:59:13;99720.09;;;-0.29;85.71
57048;BME280;42934;54.294;18.598;2023-03-12T08:01:44;99717.47;;;-0.23;84.20
57048;BME280;42934;54.294;18.598;2023-03-12T08:04:14;99725.16;;;-0.15;84.72
57048;BME280;42934;54.294;18.598;2023-03-12T08:06:43;99731.19;;;-0.18;81.82
57048;BME280;42934;54.294;18.598;2023-03-12T08:09:12;99727.72;;;-0.08;81.72
57048;BME280;42934;54.294;18.598;2023-03-12T08:11:41;99734.56;;;-0.01;80.34
57048;BME280;42934;54.294;18.598;2023-03-12T08:14:11;99736.22;;;0.11;78.71
57048;BME280;42934;54.294;18.598;2023-03-12T08:16:40;99741.34;;;0.22;78.02
57048;BME280;42934;54.294;18.598;2023-03-12T08:19:11;99737.84;;;0.34;76.44
57048;BME280;42934;54.294;18.598;2023-03-12T08:21:40;99745.47;;;0.54;78.11
57048;BME280;42934;54.294;18.598;2023-03-12T08:24:09;99735.94;;;0.65;76.65
57048;BME280;42934;54.294;18.598;2023-03-12T08:26:38;99747.03;;;0.73;74.84
57048;BME280;42934;54.294;18.598;2023-03-12T08:29:07;99763.41;;;0.75;74.66
57048;BME280;42934;54.294;18.598;2023-03-12T08:31:36;99773.81;;;0.66;74.86
57048;BME280;42934;54.294;18.598;2023-03-12T08:34:22;99780.72;;;0.58;77.49
57048;BME280;42934;54.294;18.598;2023-03-12T08:36:51;99784.31;;;0.37;78.20
57048;BME280;42934;54.294;18.598;2023-03-12T08:39:20;99786.09;;;0.24;79.53
57048;BME280;42934;54.294;18.598;2023-03-12T08:41:49;99791.25;;;0.19;80.28
57048;BME280;42934;54.294;18.598;2023-03-12T08:44:22;99797.34;;;0.06;81.27
57048;BME280;42934;54.294;18.598;2023-03-12T08:46:51;99795.66;;;-0.01;81.28
57048;BME280;42934;54.294;18.598;2023-03-12T08:49:22;99812.91;;;-0.17;81.59
57048;BME280;42934;54.294;18.598;2023-03-12T08:51:51;99812.91;;;-0.14;81.30
57048;BME280;42934;54.294;18.598;2023-03-12T08:54:20;99815.50;;;-0.21;80.71
57048;BME280;42934;54.294;18.598;2023-03-12T08:56:50;99826.66;;;-0.06;80.85
57048;BME280;42934;54.294;18.598;2023-03-12T08:59:20;99836.94;;;0.07;81.17
57048;BME280;42934;54.294;18.598;2023-03-12T09:01:49;99835.19;;;0.10;80.21
57048;BME280;42934;54.294;18.598;2023-03-12T09:04:19;99849.81;;;0.11;79.59
57048;BME280;42934;54.294;18.598;2023-03-12T09:06:49;99857.56;;;0.10;78.26
57048;BME280;42934;54.294;18.598;2023-03-12T09:09:19;99857.56;;;0.10;77.58
57048;BME280;42934;54.294;18.598;2023-03-12T09:11:48;99852.34;;;0.20;78.13
57048;BME280;42934;54.294;18.598;2023-03-12T09:14:17;99856.63;;;0.34;77.88
57048;BME280;42934;54.294;18.598;2023-03-12T09:17:06;99856.59;;;0.37;76.95
57048;BME280;42934;54.294;18.598;2023-03-12T09:19:35;99853.09;;;0.47;77.57
57048;BME280;42934;54.294;18.598;2023-03-12T09:22:06;99856.50;;;0.58;77.04
57048;BME280;42934;54.294;18.598;2023-03-12T09:24:35;99869.38;;;0.66;74.46
57048;BME280;42934;54.294;18.598;2023-03-12T09:27:04;99875.38;;;0.73;73.50
57048;BME280;42934;54.294;18.598;2023-03-12T09:29:33;99879.69;;;0.72;73.23
57048;BME280;42934;54.294;18.598;2023-03-12T09:32:12;99885.75;;;0.65;72.84
57048;BME280;42934;54.294;18.598;2023-03-12T09:34:43;99883.25;;;0.43;72.61
57048;BME280;42934;54.294;18.598;2023-03-12T09:37:13;99890.97;;;0.51;73.58
57048;BME280;42934;54.294;18.598;2023-03-12T09:39:43;99887.47;;;0.66;73.60
57048;BME280;42934;54.294;18.598;2023-03-12T09:42:14;99896.06;;;0.71;73.29
57048;BME280;42934;54.294;18.598;2023-03-12T09:44:47;99885.69;;;0.77;72.59
57048;BME280;42934;54.294;18.598;2023-03-12T09:47:22;99893.41;;;0.82;71.87
57048;BME280;42934;54.294;18.598;2023-03-12T09:49:54;99902.03;;;0.84;70.78
57048;BME280;42934;54.294;18.598;2023-03-12T09:52:26;99904.53;;;0.98;72.14
57048;BME280;42934;54.294;18.598;2023-03-12T09:54:58;99899.34;;;0.99;71.96
57048;BME280;42934;54.294;18.598;2023-03-12T09:57:29;99914.75;;;1.18;72.06
57048;BME280;42934;54.294;18.598;2023-03-12T09:59:59;99903.53;;;1.17;69.66
57048;BME280;42934;54.294;18.598;2023-03-12T10:02:43;99936.34;;;1.10;68.54
57048;BME280;42934;54.294;18.598;2023-03-12T10:05:16;99927.78;;;1.01;69.51
57048;BME280;42934;54.294;18.598;2023-03-12T10:07:50;99922.63;;;0.98;67.15
57048;BME280;42934;54.294;18.598;2023-03-12T10:10:24;99927.81;;;0.93;67.15
57048;BME280;42934;54.294;18.598;2023-03-12T10:13:12;99929.47;;;1.05;68.33
57048;BME280;42934;54.294;18.598;2023-03-12T10:15:47;99926.00;;;1.12;66.85
57048;BME280;42934;54.294;18.598;2023-03-12T10:18:20;99929.31;;;1.29;66.23
57048;BME280;42934;54.294;18.598;2023-03-12T10:20:58;99931.78;;;1.46;66.26
57048;BME280;42934;54.294;18.598;2023-03-12T10:23:32;99935.13;;;1.64;65.31
57048;BME280;42934;54.294;18.598;2023-03-12T10:26:04;99946.19;;;1.83;65.76
57048;BME280;42934;54.294;18.598;2023-03-12T10:28:35;99960.91;;;1.76;65.93
57048;BME280;42934;54.294;18.598;2023-03-12T10:31:06;99964.50;;;1.59;68.27
57048;BME280;42934;54.294;18.598;2023-03-12T10:33:41;99959.63;;;1.10;69.86
57048;BME280;42934;54.294;18.598;2023-03-12T10:36:12;99951.88;;;1.09;70.63
57048;BME280;42934;54.294;18.598;2023-03-12T10:38:44;99964.72;;;1.24;70.72
57048;BME280;42934;54.294;18.598;2023-03-12T10:41:15;99959.41;;;1.47;70.90
57048;BME280;42934;54.294;18.598;2023-03-12T10:43:45;99970.47;;;1.68;70.51
57048;BME280;42934;54.294;18.598;2023-03-12T10:51:52;99960.41;;;2.33;65.13
57048;BME280;42934;54.294;18.598;2023-03-12T10:54:25;99956.69;;;2.55;64.10
57048;BME280;42934;54.294;18.598;2023-03-12T10:56:55;99975.50;;;2.74;62.85
57048;BME280;42934;54.294;18.598;2023-03-12T10:59:28;99959.81;;;2.85;58.95
57048;BME280;42934;54.294;18.598;2023-03-12T11:01:58;99968.19;;;3.05;59.41
57048;BME280;42934;54.294;18.598;2023-03-12T11:04:28;99956.66;;;3.28;56.28
57048;BME280;42934;54.294;18.598;2023-03-12T11:07:15;99958.91;;;3.51;53.09
57048;BME280;42934;54.294;18.598;2023-03-12T11:10:01;99953.34;;;3.77;52.33
57048;BME280;42934;54.294;18.598;2023-03-12T11:12:31;99955.16;;;4.21;50.35
57048;BME280;42934;54.294;18.598;2023-03-12T11:15:15;99964.56;;;4.75;48.31
57048;BME280;42934;54.294;18.598;2023-03-12T11:17:46;99968.84;;;4.31;46.70
57048;BME280;42934;54.294;18.598;2023-03-12T11:20:25;99968.59;;;3.95;48.42
57048;BME280;42934;54.294;18.598;2023-03-12T11:22:55;99969.66;;;3.83;48.05
57048;BME280;42934;54.294;18.598;2023-03-12T11:25:26;99983.78;;;4.66;47.54
57048;BME280;42934;54.294;18.598;2023-03-12T11:27:56;99985.84;;;5.34;47.88
57048;BME280;42934;54.294;18.598;2023-03-12T11:30:28;99980.09;;;5.59;47.74
57048;BME280;42934;54.294;18.598;2023-03-12T11:33:00;99991.47;;;5.94;47.71
57048;BME280;42934;54.294;18.598;2023-03-12T11:35:32;99981.78;;;5.99;47.41
57048;BME280;42934;54.294;18.598;2023-03-12T11:38:08;99991.25;;;5.25;48.67
57048;BME280;42934;54.294;18.598;2023-03-12T11:40:49;99993.81;;;4.86;50.50
57048;BME280;42934;54.294;18.598;2023-03-12T11:43:34;100001.63;;;4.40;49.57
57048;BME280;42934;54.294;18.598;2023-03-12T11:46:13;100015.84;;;4.19;50.87
57048;BME280;42934;54.294;18.598;2023-03-12T11:48:49;100006.19;;;4.25;51.18
57048;BME280;42934;54.294;18.598;2023-03-12T11:51:23;100010.94;;;4.96;50.24
57048;BME280;42934;54.294;18.598;2023-03-12T11:54:03;100003.56;;;5.18;49.75
57048;BME280;42934;54.294;18.598;2023-03-12T11:56:36;100002.41;;;5.32;49.94
57048;BME280;42934;54.294;18.598;2023-03-12T11:59:11;100013.84;;;5.63;48.26
57048;BME280;42934;54.294;18.598;2023-03-12T12:01:52;100006.25;;;5.93;47.72
57048;BME280;42934;54.294;18.598;2023-03-12T12:04:31;100012.66;;;6.16;47.90
57048;BME280;42934;54.294;18.598;2023-03-12T12:07:07;99997.16;;;6.09;46.96
57048;BME280;42934;54.294;18.598;2023-03-12T12:09:43;100003.78;;;6.23;43.94
57048;BME280;42934;54.294;18.598;2023-03-12T12:12:23;99997.75;;;6.21;40.93
57048;BME280;42934;54.294;18.598;2023-03-12T12:14:59;100005.50;;;6.24;39.47
57048;BME280;42934;54.294;18.598;2023-03-12T12:17:37;100001.56;;;6.42;41.07
57048;BME280;42934;54.294;18.598;2023-03-12T12:20:19;99992.81;;;6.77;41.51
57048;BME280;42934;54.294;18.598;2023-03-12T12:22:53;100003.56;;;6.96;40.53
57048;BME280;42934;54.294;18.598;2023-03-12T12:25:26;100009.78;;;6.92;39.98
57048;BME280;42934;54.294;18.598;2023-03-12T12:28:02;100020.13;;;6.95;40.35
57048;BME280;42934;54.294;18.598;2023-03-12T12:30:37;100025.91;;;6.75;40.53
57048;BME280;42934;54.294;18.598;2023-03-12T12:33:13;100029.38;;;6.41;40.56
57048;BME280;42934;54.294;18.598;2023-03-12T12:35:43;100034.06;;;6.61;42.18
57048;BME280;42934;54.294;18.598;2023-03-12T12:38:13;100039.53;;;6.85;42.37
57048;BME280;42934;54.294;18.598;2023-03-12T12:40:46;100036.09;;;7.15;41.58
57048;BME280;42934;54.294;18.598;2023-03-12T12:43:21;100028.00;;;7.24;40.68
57048;BME280;42934;54.294;18.598;2023-03-12T12:45:52;100020.66;;;7.37;39.11
57048;BME280;42934;54.294;18.598;2023-03-12T12:48:23;100020.28;;;7.20;38.79
57048;BME280;42934;54.294;18.598;2023-03-12T12:50:55;100029.06;;;7.17;38.49
57048;BME280;42934;54.294;18.598;2023-03-12T12:53:28;100025.00;;;7.07;37.82
57048;BME280;42934;54.294;18.598;2023-03-12T12:56:01;100032.78;;;7.09;38.40
57048;BME280;42934;54.294;18.598;2023-03-12T12:58:44;100032.47;;;7.19;38.68
57048;BME280;42934;54.294;18.598;2023-03-12T13:01:13;100031.06;;;7.39;40.18
57048;BME280;42934;54.294;18.598;2023-03-12T13:03:43;100025.22;;;7.29;37.49
57048;BME280;42934;54.294;18.598;2023-03-12T13:06:14;100031.81;;;7.42;40.12
57048;BME280;42934;54.294;18.598;2023-03-12T13:08:59;100039.66;;;7.13;39.41
57048;BME280;42934;54.294;18.598;2023-03-12T13:11:29;100038.78;;;7.12;39.98
57048;BME280;42934;54.294;18.598;2023-03-12T13:14:12;100041.38;;;6.81;39.31
57048;BME280;42934;54.294;18.598;2023-03-12T13:16:42;100045.81;;;6.45;40.47
57048;BME280;42934;54.294;18.598;2023-03-12T13:19:23;100064.13;;;6.06;39.15